Latest Weather Observations for Biloela

IDQ60801

Issued at 4:35 pm EST Tuesday 29 July 2014 (issued every 30 minutes, with the page automatically refreshed every 10 minutes)

About weather observations | Map of weather stations | Latest weather observations for QLD | Other Formats
Station Details ID: 039089 Name: THANGOOL AIRPORT Lat: -24.49 Lon: 150.57 Height: 193.1 m
Data from the previous 72 hours. | See also: Recent months at Biloela
Date/Time
EST
Temp
°C
App
Temp
°C
Dew
Point
Rel
Hum
%
Delta-T
°C
Wind Press
QNH
hPa
Press
MSL
hPa
Rain
since 9 am
mm
Dir
 
Spd
km/h
Gust
km/h
Spd
kts
Gust
kts
29/04:30pm 24.8 22.7 5.6 29 9.8 NNE 6 7 3 4 1019.6 - -
29/04:00pm 25.1 22.9 6.3 30 9.8 N 7 13 4 7 1019.4 - -
29/03:30pm 25.0 22.6 5.2 28 10.1 E 7 11 4 6 1019.5 - -
29/03:00pm 25.6 23.1 6.7 30 9.9 NNW 9 15 5 8 1019.6 1019.5 0.0
29/02:30pm 24.6 22.4 6.4 31 9.5 ENE 7 13 4 7 1019.8 - -
29/02:00pm 24.8 22.4 7.0 32 9.4 S 9 17 5 9 1020.2 - -
29/01:30pm 24.3 22.3 6.1 31 9.4 NNE 6 13 3 7 1020.7 - -
29/01:00pm 23.2 20.9 5.6 32 9.0 SSE 7 13 4 7 1021.3 - -
29/12:30pm 22.9 20.3 6.2 34 8.6 SSW 9 15 5 8 1021.8 - -
29/12:00pm 22.4 20.0 8.5 41 7.4 WNW 11 17 6 9 1022.3 1022.3 -
29/11:30am 22.1 20.0 9.6 45 6.8 NNW 11 20 6 11 1022.9 - 0.0
29/11:00am 21.4 18.9 9.6 47 6.4 WNW 13 22 7 12 1023.5 - 0.0
29/10:30am 20.2 17.6 10.6 54 5.3 NW 15 20 8 11 1023.9 - 0.0
29/10:00am 19.5 19.0 10.8 57 4.8 WNW 4 11 2 6 1024.4 - 0.0
29/09:30am 18.0 17.8 10.4 61 4.1 SSE 2 7 1 4 1024.6 - 0.0
29/09:00am 15.3 13.8 9.0 66 3.2 E 7 11 4 6 1024.7 1024.6 0.0
29/08:30am 12.7 10.8 7.6 71 2.5 E 7 9 4 5 1024.8 - 0.0
29/08:00am 9.7 7.1 6.2 79 1.6 E 9 11 5 6 1024.8 - 0.0
29/07:30am 7.3 4.1 5.1 86 1.0 E 11 13 6 7 1024.6 - 0.0
29/07:00am 5.1 1.6 3.6 90 0.6 E 11 13 6 7 1024.3 - 0.0
29/06:30am 5.1 1.6 3.6 90 0.6 ESE 11 13 6 7 1024.0 - 0.0
29/06:00am 4.6 1.3 2.6 87 0.8 ESE 9 13 5 7 1023.5 1023.4 0.0
29/05:30am 5.2 1.6 3.2 87 0.8 E 11 13 6 7 1022.9 - 0.0
29/05:00am 4.6 1.3 2.5 86 0.9 ESE 9 13 5 7 1022.7 - 0.0
29/04:30am 5.5 2.4 3.5 87 0.8 E 9 11 5 6 1022.5 - 0.0
29/04:00am 4.5 1.2 2.7 88 0.7 E 9 11 5 6 1022.2 - 0.0
29/03:30am 4.3 1.5 2.0 85 0.9 SE 6 7 3 4 1022.0 - 0.0
29/03:00am 4.4 1.4 2.1 85 0.9 SSE 7 9 4 5 1022.0 1022.0 0.0
29/02:30am 4.0 0.8 1.0 81 1.2 E 7 9 4 5 1022.0 - 0.0
29/02:00am 4.5 1.3 0.6 76 1.5 E 7 9 4 5 1022.1 - 0.0
29/01:30am 6.6 3.9 3.8 82 1.2 ENE 7 9 4 5 1022.2 - 0.0
29/01:00am 4.8 1.2 0.9 76 1.5 E 9 11 5 6 1022.3 - 0.0
29/12:30am 5.8 2.6 1.0 71 1.9 SSE 7 9 4 5 1022.5 - 0.0
29/12:00am 7.0 3.6 1.9 70 2.1 E 9 13 5 7 1022.5 1022.5 0.0
 
Date/Time
EST
Temp
°C
App
Temp
°C
Dew
Point
Rel
Hum
%
Delta-T
°C
Wind Press
QNH
hPa
Press
MSL
hPa
Rain
since 9 am
mm
Dir
 
Spd
km/h
Gust
km/h
Spd
kts
Gust
kts
28/11:30pm 6.1 4.3 1.1 70 2.0 CALM 0 0 0 0 1022.8 - 0.0
28/11:00pm 6.9 5.2 1.6 69 2.2 CALM 0 0 0 0 1022.7 - 0.0
28/10:30pm 7.1 5.3 1.2 66 2.4 CALM 0 0 0 0 1022.8 - 0.0
28/10:00pm 8.7 6.4 2.7 66 2.6 SSE 4 11 2 6 1022.6 - 0.0
28/09:30pm 11.2 9.9 4.2 62 3.2 CALM 0 0 0 0 1022.4 - 0.0
28/09:00pm 10.4 7.3 3.4 62 3.1 S 9 17 5 9 1022.2 1022.2 0.0
28/08:30pm 13.8 11.8 7.1 64 3.3 E 7 11 4 6 1021.8 - 0.0
28/08:00pm 10.5 6.0 2.1 56 3.6 E 15 17 8 9 1021.6 - 0.0
28/07:30pm 11.5 8.6 2.5 54 3.9 E 7 11 4 6 1021.3 - 0.0
28/07:00pm 12.9 10.5 1.9 47 4.8 E 4 7 2 4 1021.1 - 0.0
28/06:30pm 14.3 12.7 2.5 45 5.3 CALM 0 0 0 0 1020.7 - 0.0
28/06:00pm 17.7 15.1 1.2 33 7.4 S 4 6 2 3 1020.3 1020.2 0.0
28/05:30pm 20.9 19.4 3.2 31 8.5 CALM 0 7 0 4 1019.9 - 0.0
28/05:00pm 24.5 22.9 2.6 24 10.6 CALM 0 0 0 0 1019.5 - 0.0
28/04:30pm 24.7 22.0 2.8 24 10.7 E 6 9 3 5 1019.5 - 0.0
28/04:00pm 24.7 21.5 2.8 24 10.7 N 9 11 5 6 1019.4 - 0.0
28/03:30pm 25.7 23.7 4.2 25 10.8 S 4 11 2 6 1019.5 - 0.0
28/03:00pm 24.7 22.0 3.9 26 10.3 SSW 7 13 4 7 1019.8 1019.7 0.0
28/02:30pm 25.1 22.8 4.8 27 10.3 ESE 6 17 3 9 1020.1 - 0.0
28/02:00pm 24.9 22.1 5.2 28 10.1 SW 9 15 5 8 1020.6 - 0.0
28/01:30pm 24.8 22.0 5.1 28 10.0 WNW 9 17 5 9 1021.1 - 0.0
28/01:00pm 24.3 22.2 5.6 30 9.6 SW 6 17 3 9 1021.8 - 0.0
28/12:30pm 24.2 21.7 6.5 32 9.2 W 9 13 5 7 1022.4 - 0.0
28/12:00pm 23.0 20.4 6.3 34 8.6 NW 9 15 5 8 1023.0 1023.0 0.0
28/11:30am 22.4 19.7 5.8 34 8.4 W 9 17 5 9 1023.7 - 0.0
28/11:00am 21.9 19.0 6.6 37 7.9 NW 11 19 6 10 1024.1 - 0.0
28/10:30am 20.8 18.3 6.4 39 7.3 NW 9 15 5 8 1024.5 - 0.0
28/10:00am 20.5 18.5 6.4 40 7.2 NE 6 9 3 5 1024.8 - 0.0
28/09:30am 18.3 15.6 3.8 38 6.9 E 7 11 4 6 1025.0 - 0.0
28/09:00am 15.3 12.5 3.1 44 5.5 ESE 7 11 4 6 1025.1 1025.0 0.0
28/08:30am 12.5 9.7 2.9 52 4.3 E 7 9 4 5 1024.8 - 0.0
28/08:00am 9.5 6.6 2.4 61 3.0 E 7 9 4 5 1024.7 - 0.0
28/07:30am 6.7 3.3 1.8 71 2.0 E 9 11 5 6 1024.6 - 0.0
28/07:00am 4.6 1.0 0.7 76 1.5 E 9 9 5 5 1024.4 - 0.0
28/06:30am 4.2 0.2 0.4 76 1.5 E 11 13 6 7 1024.2 - 0.0
28/06:00am 3.7 -0.7 0.4 79 1.3 ENE 13 13 7 7 1023.9 1023.8 0.0
28/05:30am 4.1 0.1 0.3 76 1.5 E 11 13 6 7 1023.6 - 0.0
28/05:00am 4.7 1.1 0.3 73 1.7 E 9 11 5 6 1023.3 - 0.0
28/04:30am 5.2 1.6 0.8 73 1.7 E 9 9 5 5 1023.1 - 0.0
28/04:00am 4.7 1.1 0.8 76 1.5 E 9 11 5 6 1022.9 - 0.0
28/03:30am 3.7 0.6 0.2 78 1.3 ESE 6 7 3 4 1022.8 - 0.0
28/03:00am 4.4 1.0 -0.4 71 1.8 ESE 7 9 4 5 1022.9 1022.9 0.0
28/02:30am 6.2 3.0 0.9 69 2.1 E 7 9 4 5 1023.0 - 0.0
28/02:00am 6.2 2.3 1.1 70 2.0 E 11 13 6 7 1023.3 - 0.0
28/01:30am 4.9 0.5 0.5 73 1.7 ENE 13 15 7 8 1023.7 - 0.0
28/01:00am 6.9 3.4 1.4 68 2.2 E 9 11 5 6 1023.9 - 0.0
28/12:30am 5.1 1.9 0.7 73 1.7 E 7 9 4 5 1024.0 - 0.0
28/12:00am 5.5 2.3 0.5 70 1.9 E 7 9 4 5 1024.2 1024.1 0.0
 
Date/Time
EST
Temp
°C
App
Temp
°C
Dew
Point
Rel
Hum
%
Delta-T
°C
Wind Press
QNH
hPa
Press
MSL
hPa
Rain
since 9 am
mm
Dir
 
Spd
km/h
Gust
km/h
Spd
kts
Gust
kts
27/11:30pm 6.5 4.6 0.4 65 2.4 CALM 0 0 0 0 1024.3 - 0.0
27/11:00pm 9.8 7.0 2.2 59 3.2 E 6 9 3 5 1024.3 - 0.0
27/10:30pm 10.4 7.1 2.3 57 3.5 ESE 9 11 5 6 1024.2 - 0.0
27/10:00pm 8.8 5.7 1.5 60 3.0 E 7 13 4 7 1024.1 - 0.0
27/09:30pm 9.8 7.0 1.9 58 3.3 E 6 7 3 4 1024.1 - 0.0
27/09:00pm 9.2 5.7 1.4 58 3.2 E 9 11 5 6 1023.9 1023.8 0.0
27/08:30pm 11.4 8.4 1.9 52 4.1 E 7 9 4 5 1023.6 - 0.0
27/08:00pm 11.7 9.7 2.5 53 4.0 E 2 6 1 3 1023.4 - 0.0
27/07:30pm 12.2 9.3 2.6 52 4.2 ESE 7 7 4 4 1022.9 - 0.0
27/07:00pm 14.3 12.8 2.9 46 5.1 CALM 0 0 0 0 1022.6 - 0.0
27/06:30pm 15.9 13.8 4.0 45 5.6 S 4 6 2 3 1022.3 - 0.0
27/06:00pm 17.7 15.0 3.6 39 6.6 SSW 7 11 4 6 1021.8 1021.8 0.0
27/05:30pm 20.6 17.5 3.8 33 8.1 SW 9 17 5 9 1021.5 - 0.0
27/05:00pm 22.8 19.5 4.3 30 9.2 SW 11 20 6 11 1021.2 - 0.0
27/04:30pm 23.9 20.4 1.5 23 10.6 S 9 17 5 9 1021.0 - 0.0
27/04:00pm 24.4 19.1 -0.7 19 11.5 SSW 17 26 9 14 1021.1 - 0.0
27/03:30pm 25.2 20.9 0.7 20 11.5 SSW 13 20 7 11 1021.0 - 0.0
27/03:00pm 25.3 20.8 2.1 22 11.2 W 15 20 8 11 1021.0 1020.9 0.0
27/02:30pm 25.2 19.8 2.6 23 11.0 SW 20 28 11 15 1021.2 - 0.0
27/02:00pm 25.2 21.3 5.4 28 10.2 SSW 15 28 8 15 1021.5 - 0.0
27/01:30pm 25.4 21.7 6.1 29 10.0 S 15 26 8 14 1021.9 - 0.0
27/01:00pm 24.6 21.4 6.8 32 9.3 SSW 13 22 7 12 1022.3 - 0.0
27/12:30pm 24.0 21.4 9.2 39 8.1 S 13 20 7 11 1022.9 - 0.0
27/12:00pm 24.2 22.2 10.1 41 7.8 S 11 20 6 11 1023.5 1023.4 0.0
27/11:30am 22.9 20.8 11.3 48 6.5 S 13 20 7 11 1024.0 - 0.0
27/11:00am 22.0 20.1 11.7 52 5.8 S 13 20 7 11 1024.4 - 0.0
27/10:30am 21.3 19.1 12.2 56 5.2 SSE 15 24 8 13 1024.9 - 0.0
27/10:00am 19.6 18.9 13.3 67 3.6 S 9 13 5 7 1025.1 - 0.0
27/09:30am 18.2 17.9 13.3 73 2.8 SE 7 11 4 6 1025.4 - 0.0
27/09:00am 15.7 15.2 12.5 81 1.8 ESE 7 9 4 5 1025.4 1025.3 0.0
27/08:30am 13.2 12.4 11.6 90 0.9 E 7 9 4 5 1025.3 - 0.0
27/08:00am 11.5 10.5 10.9 96 0.3 E 7 9 4 5 1025.3 - 0.0
27/07:30am 9.8 8.4 9.5 98 0.2 E 7 9 4 5 1025.1 - 0.0
27/07:00am 8.3 6.5 8.0 98 0.1 E 7 9 4 5 1024.9 - 0.0
27/06:59am 8.2 6.4 7.9 98 0.1 E 7 9 4 5 1024.8 - 0.0
27/06:36am 6.6 4.3 5.9 95 0.3 E 7 9 4 5 1024.5 - 0.0
27/06:30am 6.9 4.9 6.3 96 0.3 E 6 9 3 5 1024.5 - 0.0
27/06:00am 7.4 5.3 6.8 96 0.3 ESE 7 9 4 5 1024.0 1023.9 0.0
27/05:42am 8.6 6.5 8.3 98 0.1 E 9 11 5 6 1023.9 - 0.0
27/05:30am 8.5 6.4 8.1 97 0.2 ENE 9 11 5 6 1024.1 - 0.0
27/05:11am 8.4 6.2 8.0 97 0.2 E 9 9 5 5 1024.1 - 0.0
27/05:10am 8.5 6.4 8.1 97 0.2 E 9 9 5 5 1024.1 - 0.0
27/05:00am 8.9 6.9 8.5 97 0.2 E 9 11 5 6 1024.1 - 0.0
27/04:30am 8.8 7.1 8.4 97 0.2 E 7 9 4 5 1023.9 - 0.0
27/04:00am 9.5 8.0 9.0 97 0.2 E 7 11 4 6 1023.7 - 0.0
27/03:30am 9.7 7.9 9.4 98 0.2 E 9 9 5 5 1023.8 - 0.0
27/03:00am 8.9 6.9 8.5 97 0.2 E 9 9 5 5 1024.0 1023.9 0.0
27/02:30am 8.4 6.6 7.8 96 0.3 SE 7 9 4 5 1024.1 - 0.0
27/02:26am 8.3 6.4 7.7 96 0.3 ESE 7 9 4 5 1024.1 - 0.0
27/02:18am 10.2 8.5 9.9 98 0.2 E 9 11 5 6 1024.1 - 0.0
27/02:00am 9.6 8.1 9.1 97 0.2 ENE 7 9 4 5 1024.3 - 0.0
27/01:30am 8.6 7.0 8.0 96 0.3 E 6 9 3 5 1024.5 - 0.0
27/01:00am 9.3 8.9 8.4 94 0.4 CALM 0 0 0 0 1024.7 - 0.0
27/12:30am 10.0 9.8 8.9 93 0.5 CALM 0 0 0 0 1025.0 - 0.0
27/12:29am 10.1 9.9 8.9 92 0.6 CALM 0 0 0 0 1025.0 - 0.0
27/12:20am 9.9 9.6 8.5 91 0.7 CALM 0 0 0 0 1025.0 - 0.0
27/12:02am 10.6 10.6 9.7 94 0.5 CALM 0 0 0 0 1025.0 - 0.0
27/12:00am 10.5 10.4 9.4 93 0.6 CALM 0 0 0 0 1025.0 1024.9 0.0
 
Date/Time
EST
Temp
°C
App
Temp
°C
Dew
Point
Rel
Hum
%
Delta-T
°C
Wind Press
QNH
hPa
Press
MSL
hPa
Rain
since 9 am
mm
Dir
 
Spd
km/h
Gust
km/h
Spd
kts
Gust
kts
26/11:30pm 11.0 10.5 9.3 89 0.9 ESE 2 6 1 3 1025.0 - 0.0
26/11:00pm 11.9 11.5 9.6 86 1.2 ESE 2 9 1 5 1025.1 - 0.0
26/10:30pm 13.8 14.4 11.8 88 1.1 CALM 0 0 0 0 1025.4 - 0.0
26/10:00pm 13.1 12.2 10.5 84 1.4 ESE 6 7 3 4 1025.7 - 0.0
26/09:30pm 13.8 13.0 11.1 84 1.4 SSE 6 7 3 4 1025.9 - 0.0
26/09:00pm 14.1 14.5 11.4 84 1.4 CALM 0 9 0 5 1026.2 1026.2 0.0
26/08:30pm 14.4 14.9 11.6 83 1.5 CALM 0 0 0 0 1026.1 - 0.0
26/08:00pm 14.7 15.2 11.5 81 1.7 CALM 0 0 0 0 1026.0 - 0.0
26/07:30pm 15.6 16.4 12.7 83 1.6 CALM 0 0 0 0 1025.5 - 0.0
26/07:00pm 15.5 15.5 12.3 81 1.8 SE 4 7 2 4 1025.5 - 0.0
26/06:30pm 15.5 16.1 11.9 79 2.0 CALM 0 9 0 5 1025.2 - 0.0
26/06:00pm 16.5 17.3 12.5 77 2.2 CALM 0 0 0 0 1025.1 1025.0 0.0
26/05:30pm 17.3 18.1 12.4 73 2.7 CALM 0 0 0 0 1024.9 - 0.0
26/05:00pm 18.2 19.2 13.1 72 2.9 CALM 0 0 0 0 1024.8 - 0.0

Other Formats:

Comma delimited format used in spreadsheet applications
http://www.bom.gov.au/fwo/IDQ60801/IDQ60801.94376.axf

JavaScript Object Notation format (JSON) in row-major order
http://www.bom.gov.au/fwo/IDQ60801/IDQ60801.94376.json